ADDS METAR Data INFO
IDs: Format: Raw Decoded Include TAF

Data at: 2332 UTC 15 Dec 2017

KCAD 152315Z AUTO 25007KT 7SM -SN SCT019 SCT028 OVC035 M07/M09 A2974 RMK AO2 T10751093
KCAD 152255Z AUTO 25008KT 4SM -SN SCT015 SCT026 OVC037 M07/M08 A2974 RMK AO2 T10731090
KCAD 152235Z AUTO 26006KT 4SM -SN OVC037 M07/M08 A2974 RMK AO2 T10721087
KCAD 152215Z AUTO 26006KT 1 3/4SM -SN SCT009 SCT015 OVC041 M07/M08 A2973 RMK AO2 T10711087
KCAD 152155Z AUTO 26007KT 2SM -SN SCT017 OVC041 M07/M08 A2972 RMK AO2 T10701090
KCAD 152135Z AUTO 26008KT 4SM -SN SCT017 SCT021 OVC043 M06/M08 A2972 RMK AO2 T10671091
KCAD 152115Z AUTO 27009G16KT 5SM -SN OVC045 M06/M09 A2971 RMK AO2 T10671091
KCAD 152055Z AUTO 27010KT 7SM -SN SCT016 OVC044 M06/M08 A2971 RMK AO2 T10661087
KCAD 152035Z AUTO 27014G17KT 1 1/4SM -SN SCT004 SCT009 OVC016 M06/M08 A2970 RMK AO2 T10651081
KCAD 152015Z AUTO 26006KT 1 3/4SM -SN SCT006 BKN017 OVC022 M06/M08 A2970 RMK AO2 T10651081
KCAD 151955Z AUTO 27008KT 2SM -SN SCT009 BKN017 OVC045 M06/M08 A2969 RMK AO2 T10631084
KCAD 151935Z AUTO 27010KT 2SM -SN BKN013 BKN021 OVC045 M06/M08 A2969 RMK AO2 T10621085
KCAD 151915Z AUTO 27008KT 3SM -SN BKN013 BKN018 OVC045 M06/M08 A2969 RMK AO2 T10611084
KCAD 151855Z AUTO 27008KT 3SM -SN BKN014 BKN019 OVC025 M06/M08 A2969 RMK AO2 T10611087
KCAD 151835Z AUTO 28011G16KT 2SM -SN BKN016 OVC022 M06/M08 A2969 RMK AO2 T10601085
KCAD 151815Z AUTO 27014KT 2SM -SN BKN014 OVC024 M06/M08 A2969 RMK AO2 T10611085
KCAD 151755Z AUTO 27010KT 1 3/4SM -SN BKN016 OVC020 M06/M08 A2969 RMK AO2 T10601083
KCAD 151735Z AUTO 28009KT 1 3/4SM -SN BKN014 OVC020 M06/M08 A2969 RMK AO2 T10611083
KCAD 151715Z AUTO 26008KT 2SM -SN SCT008 BKN014 OVC021 M06/M08 A2969 RMK AO2 T10621085
KCAD 151655Z AUTO 27009G15KT 3SM -SN SCT010 BKN025 OVC043 M06/M08 A2969 RMK AO2 T10651090
KCAD 151635Z AUTO 28010KT 7SM -SN SCT015 SCT025 OVC034 M06/M09 A2969 RMK AO2 T10651091
KCAD 151615Z AUTO 29008G15KT 2 1/2SM -SN SCT014 BKN026 OVC034 M06/M08 A2970 RMK AO2 T10641085
KCAD 151555Z AUTO 27007KT 1 1/4SM -SN BKN010 OVC014 M06/M07 A2970 RMK AO2 T10611076
KCAD 151535Z AUTO 26004KT 1SM -SN OVC011 M06/M07 A2969 RMK AO2 T10621077
KCAD 151515Z AUTO 27005KT 1SM -SN OVC009 M06/M07 A2969 RMK AO2 T10621078
KCAD 151455Z AUTO 26005KT 3/4SM -SN OVC007 M06/M07 A2969 RMK AO2 T10621076
KCAD 151435Z AUTO 25004KT 2SM -SN BKN012 OVC024 M06/M08 A2969 RMK AO2 T10661080
KCAD 151415Z AUTO 25005KT 1SM -SN OVC013 M07/M08 A2969 RMK AO2 T10701080
KCAD 151355Z AUTO 22004KT 1SM -SN BKN007 OVC015 M07/M08 A2970 RMK AO2 T10751085
KCAD 151335Z AUTO 22006KT 1/2SM SN OVC005 M07/M08 A2970 RMK AO2 T10751085
KCAD 151315Z AUTO 21006KT 3/4SM SN OVC007 M07/M08 A2970 RMK AO2 T10761085
KCAD 151255Z AUTO 20005KT 1SM SN OVC007 M07/M08 A2971 RMK AO2 T10761086
KCAD 151235Z AUTO 20006KT 1SM SN OVC007 M07/M08 A2971 RMK AO2 T10761087
KCAD 151215Z AUTO 20006KT 1SM SN OVC005 M07/M08 A2971 RMK AO2 T10761086
KCAD 151155Z AUTO 21005KT 1SM SN OVC005 M07/M08 A2972 RMK AO2 T10771086
KCAD 151135Z AUTO 19005KT 1 3/4SM -SN OVC009 M07/M08 A2972 RMK AO2 T10771088
KCAD 151115Z AUTO 19005KT 2SM -SN OVC009 M07/M08 A2973 RMK AO2 T10771088
KCAD 151055Z AUTO 18006KT 3SM -SN OVC012 M07/M08 A2973 RMK AO2 T10781090
KCAD 151035Z AUTO 19006KT 2 1/2SM -SN BKN008 OVC018 M07/M08 A2974 RMK AO2 T10801090
KCAD 151015Z AUTO 19006KT 2SM -SN OVC008 M08/M08 A2975 RMK AO2 T10801090
KCAD 150955Z AUTO 20005KT 1 1/2SM -SN OVC008 M08/M09 A2976 RMK AO2 T10811091
KCAD 150935Z AUTO 19005KT 1 3/4SM -SN BKN008 OVC016 M08/M09 A2977 RMK AO2 T10821092
KCAD 150915Z AUTO 20005KT 3SM -SN SCT020 SCT025 OVC034 M08/M09 A2978 RMK AO2 T10821093
KCAD 150855Z AUTO 19004KT 4SM -SN SCT013 BKN020 OVC025 M08/M09 A2979 RMK AO2 T10831095
KCAD 150835Z AUTO 21005KT 4SM -SN BKN010 OVC015 M08/M09 A2981 RMK AO2 T10851096
KCAD 150815Z AUTO 19004KT 10SM -SN SCT008 BKN023 OVC041 M08/M09 A2981 RMK AO2 T10861096
KCAD 150755Z AUTO 18005KT 7SM -SN SCT029 OVC041 M08/M10 A2982 RMK AO2 T10861097
KCAD 150735Z AUTO 19005KT 7SM -SN OVC041 M08/M10 A2983 RMK AO2 T10861098
KCAD 150715Z AUTO 19006KT 7SM -SN OVC039 M08/M10 A2984 RMK AO2 T10861098
KCAD 150655Z AUTO 21006KT 4SM -SN OVC039 M08/M10 A2985 RMK AO2 T10861098
KCAD 150635Z AUTO 20006KT 3SM -SN SCT012 SCT030 OVC039 M08/M10 A2985 RMK AO2 T10861098
KCAD 150615Z AUTO 20005KT 3SM -SN SCT017 OVC035 M08/M10 A2986 RMK AO2 T10861100
KCAD 150555Z AUTO 21006KT 3SM -SN OVC029 M08/M10 A2987 RMK AO2 T10861100
KCAD 150535Z AUTO 20005KT 4SM -SN OVC029 M08/M10 A2988 RMK AO2 T10871101
KCAD 150515Z AUTO 19006KT 3SM -SN SCT014 OVC029 M08/M10 A2989 RMK AO2 T10871101
KCAD 150455Z AUTO 19005KT 5SM -SN OVC026 M08/M10 A2990 RMK AO2 T10881105
KCAD 150435Z AUTO 19006KT 5SM -SN BKN025 OVC030 M08/M10 A2990 RMK AO2 T10881105
KCAD 150415Z AUTO 19004KT 7SM -SN SCT020 OVC026 M08/M10 A2991 RMK AO2 T10881107
KCAD 150355Z AUTO 22005KT 10SM -SN OVC028 M08/M10 A2991 RMK AO2 T10881107
KCAD 150335Z AUTO 22005KT 5SM -SN OVC028 M08/M10 A2992 RMK AO2 T10881107
KCAD 150315Z AUTO 22006KT 7SM -SN OVC030 M08/M11 A2993 RMK AO2 T10881108
KCAD 150255Z AUTO 21006KT 7SM -SN OVC032 M08/M11 A2993 RMK AO2 T10881111
KCAD 150235Z AUTO 22006KT 10SM -SN OVC032 M08/M11 A2993 RMK AO2 T10901112
KCAD 150215Z AUTO 22005KT 10SM -SN OVC032 M08/M11 A2994 RMK AO2 T10901111
KCAD 150155Z AUTO 23005KT 7SM -SN SCT024 OVC030 M08/M11 A2994 RMK AO2 T10901113
KCAD 150135Z AUTO 22006KT 10SM -SN OVC028 M08/M11 A2995 RMK AO2 T10881115
KCAD 150115Z AUTO 22006KT 10SM OVC028 M08/M11 A2995 RMK AO2 T10881116
KCAD 150055Z AUTO 22004KT 10SM OVC028 M08/M11 A2994 RMK AO2 T10901118
KCAD 150035Z AUTO 24003KT 10SM OVC028 M08/M12 A2994 RMK AO2 T10911122
KCAD 150015Z AUTO 24003KT 10SM OVC028 M08/M12 A2994 RMK AO2 T10881122
KCAD 142355Z AUTO 25003KT 10SM OVC028 M08/M12 A2994 RMK AO2 T10851122
KCAD 142335Z AUTO 26007KT 10SM -SN OVC026 M08/M12 A2994 RMK AO2 T10821120
KCAD 142315Z AUTO 26005KT 10SM OVC026 M08/M12 A2994 RMK AO2 T10811119
KCAD 142255Z AUTO 26004KT 10SM -SN OVC028 M08/M11 A2994 RMK AO2 T10801114
KCAD 142235Z AUTO 26006KT 10SM -SN OVC030 M07/M11 A2993 RMK AO2 T10781110
KCAD 142215Z AUTO 26005KT 7SM -SN OVC030 M07/M11 A2993 RMK AO2 T10761114
KCAD 142155Z AUTO 25005KT 10SM -SN OVC030 M07/M11 A2993 RMK AO2 T10741118
KCAD 142135Z AUTO 24006KT 10SM -SN SCT019 OVC030 M07/M09 A2993 RMK AO2 T10711095
KCAD 142115Z AUTO 26003KT 10SM -SN SCT020 SCT025 OVC031 M06/M10 A2993 RMK AO2 T10681098
KCAD 142055Z AUTO 23007KT 10SM -SN SCT021 OVC029 M06/M10 A2993 RMK AO2 T10681103
KCAD 142035Z AUTO 24007KT 10SM -SN SCT016 BKN021 OVC029 M06/M09 A2992 RMK AO2 T10661096
KCAD 142015Z AUTO 24005KT 10SM -SN BKN018 OVC032 M06/M10 A2993 RMK AO2 T10671098
KCAD 141955Z AUTO 25005KT 10SM -SN BKN018 BKN026 OVC032 M06/M10 A2992 RMK AO2 T10681097
KCAD 141935Z AUTO 23008KT 10SM -SN BKN018 OVC032 M07/M10 A2992 RMK AO2 T10701098
KCAD 141915Z AUTO 25006KT 10SM -SN SCT018 OVC032 M07/M10 A2992 RMK AO2 T10691101
KCAD 141855Z AUTO 26003KT 10SM OVC032 M06/M10 A2992 RMK AO2 T10671101
KCAD 141835Z AUTO 24005KT 10SM -SN OVC032 M07/M10 A2992 RMK AO2 T10741101
KCAD 141815Z AUTO 23007KT 10SM -SN SCT020 OVC032 M07/M10 A2992 RMK AO2 T10781103
KCAD 141755Z AUTO 23009KT 10SM -SN SCT018 BKN028 OVC032 M07/M10 A2993 RMK AO2 T10731105
KCAD 141735Z AUTO 30004KT 10SM -SN OVC026 M06/M10 A2993 RMK AO2 T10651107
KCAD 141715Z AUTO 31003KT 4SM -SN SCT023 OVC028 M07/M11 A2993 RMK AO2 T10701110
KCAD 141655Z AUTO 29007KT 10SM -SN BKN022 OVC030 M06/M11 A2994 RMK AO2 T10671110
KCAD 141636Z AUTO 28003KT 10SM OVC032 M06/M11 A2993 RMK AO2 T10611109
KCAD 141615Z AUTO 26003KT 10SM OVC030 M07/M11 A2994 RMK AO2 T10751108
KCAD 141555Z AUTO 00000KT 10SM BKN030 M12/M13 A2993 RMK AO2 T11241138
KCAD 141536Z AUTO 22003KT 10SM CLR M13/M15 A2993 RMK AO2 T11361152
KCAD 141515Z AUTO 00000KT 10SM SCT031 M15/M17 A2992 RMK AO2 T11501169
KCAD 141455Z AUTO 00000KT 7SM -SN BKN031 M17/M18 A2991 RMK AO2 T11701189
KCAD 141436Z AUTO 00000KT 3SM -SN SCT031 M18/M20 A2990 RMK AO2 T11841205
KCAD 141415Z AUTO 00000KT 7SM CLR M20/M22 A2989 RMK AO2 T11981221
KCAD 141355Z AUTO 00000KT 10SM CLR M20/M22 A2988 RMK AO2 T12021226
KCAD 141335Z AUTO 00000KT 10SM CLR M20/M23 A2989 RMK AO2 T12061231
KCAD 141315Z AUTO 00000KT 2 1/2SM -SN CLR M19/M22 A2988 RMK AO2 VIS 3/4V5 T11961224
KCAD 141255Z AUTO 00000KT 7SM -SN CLR M20/M22 A2987 RMK AO2 T12011222
KCAD 141235Z AUTO 00000KT 5SM -SN CLR M20/M22 A2987 RMK AO2 T12021220
KCAD 141215Z AUTO 00000KT 3SM -SN CLR M19/M22 A2986 RMK AO2 T11931225
KCAD 141155Z AUTO 00000KT 3SM -SN CLR M17/M20 A2985 RMK AO2 T11761201
KCAD 141135Z AUTO 00000KT 2 1/2SM -SN CLR M18/M20 A2984 RMK AO2 VIS 1 3/4V5 T11841197